createdAt,value
2022-12-08T00:00:43.660Z,1002.86
2022-12-08T00:01:43.790Z,1002.89
2022-12-08T00:02:43.631Z,1002.86
2022-12-08T00:03:43.574Z,1002.81
2022-12-08T00:04:43.508Z,1002.78
2022-12-08T00:05:43.462Z,1002.77
2022-12-08T00:06:43.426Z,1002.75
2022-12-08T00:07:43.429Z,1002.71
2022-12-08T00:08:43.347Z,1002.69
2022-12-08T00:09:43.303Z,1002.69
2022-12-08T00:10:50.519Z,1002.65
2022-12-08T00:11:43.231Z,1002.64
2022-12-08T00:12:43.193Z,1002.63
2022-12-08T00:13:43.158Z,1002.62
2022-12-08T00:14:43.120Z,1002.62
2022-12-08T00:15:43.066Z,1002.60
2022-12-08T00:16:43.064Z,1002.61
2022-12-08T00:17:42.991Z,1002.59
2022-12-08T00:18:42.948Z,1002.60
2022-12-08T00:19:42.917Z,1002.57
2022-12-08T00:20:42.885Z,1002.58
2022-12-08T00:21:42.833Z,1002.57
2022-12-08T00:22:42.792Z,1002.57
2022-12-08T00:23:42.752Z,1002.58
2022-12-08T00:24:42.718Z,1002.57
2022-12-08T00:25:42.667Z,1002.53
2022-12-08T00:26:42.630Z,1002.52
2022-12-08T00:27:42.591Z,1002.51
2022-12-08T00:28:42.555Z,1002.51
2022-12-08T00:29:42.513Z,1002.54
2022-12-08T00:30:42.475Z,1002.52
2022-12-08T00:31:42.520Z,1002.51
2022-12-08T00:32:42.397Z,1002.50
2022-12-08T00:33:42.365Z,1002.48
2022-12-08T00:34:42.320Z,1002.44
2022-12-08T00:35:43.440Z,1002.43
2022-12-08T00:36:42.243Z,1002.36
2022-12-08T00:37:42.194Z,1002.37
2022-12-08T00:38:42.160Z,1002.39
2022-12-08T00:39:42.120Z,1002.35
2022-12-08T00:40:42.093Z,1002.34
2022-12-08T00:41:42.042Z,1002.37
2022-12-08T00:42:42.023Z,1002.34
2022-12-08T00:43:41.965Z,1002.35
2022-12-08T00:44:41.948Z,1002.28
2022-12-08T00:45:41.936Z,1002.29
2022-12-08T00:46:41.847Z,1002.26
2022-12-08T00:47:41.814Z,1002.26
2022-12-08T00:48:41.777Z,1002.26
2022-12-08T00:49:41.758Z,1002.27
2022-12-08T00:50:41.687Z,1002.22
2022-12-08T00:51:41.663Z,1002.23
2022-12-08T00:52:41.621Z,1002.25
2022-12-08T00:53:41.571Z,1002.22
2022-12-08T00:54:41.534Z,1002.22
2022-12-08T00:55:41.493Z,1002.22
2022-12-08T00:56:41.455Z,1002.23
2022-12-08T00:57:41.414Z,1002.24
2022-12-08T00:58:41.379Z,1002.22
2022-12-08T00:59:41.339Z,1002.25
2022-12-08T01:00:41.336Z,1002.26
2022-12-08T01:01:41.377Z,1002.21
2022-12-08T01:02:41.239Z,1002.19
2022-12-08T01:03:41.314Z,1002.16
2022-12-08T01:04:41.142Z,1002.18
2022-12-08T01:05:41.100Z,1002.11
2022-12-08T01:06:41.061Z,1002.14
2022-12-08T01:07:41.077Z,1002.15
2022-12-08T01:08:40.983Z,1002.14
2022-12-08T01:09:40.942Z,1002.12
2022-12-08T01:10:40.898Z,1002.14
2022-12-08T01:11:40.863Z,1002.14
2022-12-08T01:12:40.822Z,1002.19
2022-12-08T01:13:40.790Z,1002.16
2022-12-08T01:14:40.748Z,1002.19
2022-12-08T01:15:40.704Z,1002.17
2022-12-08T01:16:40.710Z,1002.16
2022-12-08T01:17:40.621Z,1002.17
2022-12-08T01:18:40.593Z,1002.20
2022-12-08T01:19:40.550Z,1002.15
2022-12-08T01:20:40.509Z,1002.15
2022-12-08T01:21:40.491Z,1002.16
2022-12-08T01:22:40.429Z,1002.13
2022-12-08T01:23:40.398Z,1002.13
2022-12-08T01:24:40.422Z,1002.12
2022-12-08T01:25:40.317Z,1002.11
2022-12-08T01:26:40.266Z,1002.12
2022-12-08T01:27:40.232Z,1002.12
2022-12-08T01:28:40.196Z,1002.13
2022-12-08T01:29:40.162Z,1002.12
2022-12-08T01:30:40.167Z,1002.12
2022-12-08T01:31:40.076Z,1002.11
2022-12-08T01:32:40.031Z,1002.17
2022-12-08T01:33:39.995Z,1002.16
2022-12-08T01:34:39.953Z,1002.16
2022-12-08T01:35:39.976Z,1002.12
2022-12-08T01:36:39.875Z,1002.12
2022-12-08T01:37:39.836Z,1002.18
2022-12-08T01:38:39.798Z,1002.13
2022-12-08T01:39:39.765Z,1002.11
2022-12-08T01:40:39.723Z,1002.14
2022-12-08T01:41:39.691Z,1002.16
2022-12-08T01:42:39.637Z,1002.18
2022-12-08T01:43:39.608Z,1002.14
2022-12-08T01:44:39.562Z,1002.16
2022-12-08T01:45:39.584Z,1002.10
2022-12-08T01:46:39.613Z,1002.11
2022-12-08T01:47:39.492Z,1002.11
2022-12-08T01:48:39.410Z,1002.14
2022-12-08T01:49:39.371Z,1002.13
2022-12-08T01:50:39.325Z,1002.13
2022-12-08T01:51:39.291Z,1002.16
2022-12-08T01:52:39.244Z,1002.15
2022-12-08T01:53:39.214Z,1002.13
2022-12-08T01:54:39.181Z,1002.08
2022-12-08T01:55:39.128Z,1002.10
2022-12-08T01:56:39.096Z,1002.05
2022-12-08T01:57:39.055Z,1002.06
2022-12-08T01:58:39.009Z,1002.02
2022-12-08T01:59:38.975Z,1002.00
2022-12-08T02:00:38.933Z,1002.00
2022-12-08T02:01:38.984Z,1001.98
2022-12-08T02:02:38.876Z,1001.99
2022-12-08T02:03:38.818Z,1001.99
2022-12-08T02:04:38.781Z,1002.00
2022-12-08T02:05:38.738Z,1001.98
2022-12-08T02:06:38.707Z,1002.01
2022-12-08T02:07:38.714Z,1002.01
2022-12-08T02:08:38.616Z,1001.99
2022-12-08T02:09:38.581Z,1001.98
2022-12-08T02:10:38.540Z,1001.98
2022-12-08T02:11:38.501Z,1001.98
2022-12-08T02:12:38.465Z,1001.92
2022-12-08T02:13:38.423Z,1001.94
2022-12-08T02:14:38.385Z,1001.93
2022-12-08T02:15:38.357Z,1001.90
2022-12-08T02:16:38.315Z,1001.89
2022-12-08T02:17:38.263Z,1001.90
2022-12-08T02:18:38.224Z,1001.91
2022-12-08T02:19:38.189Z,1001.87
2022-12-08T02:20:38.150Z,1001.92
2022-12-08T02:21:38.118Z,1001.89
2022-12-08T02:22:38.070Z,1001.88
2022-12-08T02:23:38.041Z,1001.87
2022-12-08T02:24:37.990Z,1001.87
2022-12-08T02:25:37.950Z,1001.85
2022-12-08T02:26:37.937Z,1001.86
2022-12-08T02:27:37.872Z,1001.83
2022-12-08T02:28:37.839Z,1001.83
2022-12-08T02:29:37.797Z,1001.85
2022-12-08T02:30:37.799Z,1001.88
2022-12-08T02:31:37.711Z,1001.83
2022-12-08T02:32:37.673Z,1001.81
2022-12-08T02:33:37.681Z,1001.79
2022-12-08T02:34:37.595Z,1001.77
2022-12-08T02:35:37.560Z,1001.78
2022-12-08T02:36:37.531Z,1001.77
2022-12-08T02:37:37.478Z,1001.75
2022-12-08T02:38:37.443Z,1001.74
2022-12-08T02:39:37.412Z,1001.71
2022-12-08T02:40:37.359Z,1001.73
2022-12-08T02:41:37.323Z,1001.71
2022-12-08T02:42:37.319Z,1001.69
2022-12-08T02:43:37.247Z,1001.67
2022-12-08T02:44:37.211Z,1001.67
2022-12-08T02:45:37.165Z,1001.65
2022-12-08T02:46:37.152Z,1001.66
2022-12-08T02:47:37.088Z,1001.61
2022-12-08T02:48:37.052Z,1001.59
2022-12-08T02:49:37.010Z,1001.58
2022-12-08T02:50:36.985Z,1001.54
2022-12-08T02:51:36.931Z,1001.53
2022-12-08T02:52:36.892Z,1001.52
2022-12-08T02:53:36.854Z,1001.47
2022-12-08T02:54:36.812Z,1001.46
2022-12-08T02:55:36.775Z,1001.46
2022-12-08T02:56:36.731Z,1001.44
2022-12-08T02:57:36.691Z,1001.39
2022-12-08T02:58:36.653Z,1001.39
2022-12-08T02:59:36.619Z,1001.38
2022-12-08T03:00:36.577Z,1001.35
2022-12-08T03:01:36.611Z,1001.34
2022-12-08T03:02:36.560Z,1001.31
2022-12-08T03:03:36.493Z,1001.34
2022-12-08T03:04:36.420Z,1001.35
2022-12-08T03:05:36.382Z,1001.32
2022-12-08T03:06:36.340Z,1001.34
2022-12-08T03:07:36.379Z,1001.34
2022-12-08T03:08:36.273Z,1001.27
2022-12-08T03:09:36.223Z,1001.26
2022-12-08T03:10:36.181Z,1001.26
2022-12-08T03:11:36.140Z,1001.26
2022-12-08T03:12:36.104Z,1001.24
2022-12-08T03:13:36.113Z,1001.26
2022-12-08T03:14:36.075Z,1001.24
2022-12-08T03:15:36.030Z,1001.23
2022-12-08T03:16:35.948Z,1001.21
2022-12-08T03:17:35.910Z,1001.24
2022-12-08T03:18:35.865Z,1001.22
2022-12-08T03:19:35.831Z,1001.18
2022-12-08T03:20:35.786Z,1001.16
2022-12-08T03:21:35.750Z,1001.15
2022-12-08T03:22:35.715Z,1001.15
2022-12-08T03:23:35.675Z,1001.14
2022-12-08T03:24:35.640Z,1001.08
2022-12-08T03:25:35.592Z,1001.08
2022-12-08T03:26:35.554Z,1001.11
2022-12-08T03:27:35.515Z,1001.13
2022-12-08T03:28:35.473Z,1001.06
2022-12-08T03:29:35.460Z,1001.13
2022-12-08T03:30:35.391Z,1001.10
2022-12-08T03:31:35.453Z,1001.05
2022-12-08T03:32:35.326Z,1001.02
2022-12-08T03:33:35.284Z,1001.00
2022-12-08T03:34:35.244Z,1001.04
2022-12-08T03:35:35.202Z,1001.01
2022-12-08T03:36:35.159Z,1001.03
2022-12-08T03:37:35.121Z,1001.05
2022-12-08T03:38:35.080Z,1000.99
2022-12-08T03:39:35.045Z,1000.99
2022-12-08T03:40:35.000Z,1000.99
2022-12-08T03:41:34.971Z,1000.98
2022-12-08T03:42:34.922Z,1001.01
2022-12-08T03:43:34.896Z,1000.95
2022-12-08T03:44:34.848Z,1000.96
2022-12-08T03:45:34.808Z,1000.96
2022-12-08T03:46:34.769Z,1000.97
2022-12-08T03:47:34.771Z,1000.95
2022-12-08T03:48:34.688Z,1000.95
2022-12-08T03:49:34.644Z,1000.94
2022-12-08T03:50:34.609Z,1000.98
2022-12-08T03:51:34.567Z,1000.96
2022-12-08T03:52:34.524Z,1000.92
2022-12-08T03:53:34.506Z,1000.88
2022-12-08T03:54:34.439Z,1000.91
2022-12-08T03:55:34.406Z,1000.88
2022-12-08T03:56:34.374Z,1000.85
2022-12-08T03:57:34.321Z,1000.86
2022-12-08T03:58:37.350Z,1000.83
2022-12-08T03:59:34.249Z,1000.83
2022-12-08T04:00:34.212Z,1000.85
2022-12-08T04:01:34.264Z,1000.87
2022-12-08T04:02:34.170Z,1000.80
2022-12-08T04:03:34.101Z,1000.81
2022-12-08T04:04:34.050Z,1000.83
2022-12-08T04:05:34.010Z,1000.84
2022-12-08T04:06:33.974Z,1000.82
2022-12-08T04:07:33.934Z,1000.78
2022-12-08T04:08:33.926Z,1000.76
2022-12-08T04:09:33.853Z,1000.80
2022-12-08T04:10:33.810Z,1000.78
2022-12-08T04:11:33.771Z,1000.78
2022-12-08T04:12:33.732Z,1000.71
2022-12-08T04:13:33.688Z,1000.69
2022-12-08T04:14:33.649Z,1000.68
2022-12-08T04:15:33.613Z,1000.66
2022-12-08T04:16:33.661Z,1000.68
2022-12-08T04:17:33.534Z,1000.69
2022-12-08T04:18:33.497Z,1000.68
2022-12-08T04:19:33.453Z,1000.70
2022-12-08T04:20:33.423Z,1000.70
2022-12-08T04:21:33.423Z,1000.70
2022-12-08T04:22:33.367Z,1000.67
2022-12-08T04:23:33.297Z,1000.71
2022-12-08T04:24:33.262Z,1000.73
2022-12-08T04:25:33.214Z,1000.73
2022-12-08T04:26:33.189Z,1000.68
2022-12-08T04:27:33.137Z,1000.65
2022-12-08T04:28:33.097Z,1000.64
2022-12-08T04:29:33.052Z,1000.64
2022-12-08T04:30:33.014Z,1000.60
2022-12-08T04:31:33.061Z,1000.65
2022-12-08T04:32:32.936Z,1000.63
2022-12-08T04:33:32.911Z,1000.53
2022-12-08T04:34:32.857Z,1000.55
2022-12-08T04:35:32.821Z,1000.56
2022-12-08T04:36:32.778Z,1000.53
2022-12-08T04:37:32.739Z,1000.51
2022-12-08T04:38:32.698Z,1000.53
2022-12-08T04:39:32.661Z,1000.49
2022-12-08T04:40:32.621Z,1000.50
2022-12-08T04:41:32.584Z,1000.49
2022-12-08T04:42:32.536Z,1000.47
2022-12-08T04:43:32.501Z,1000.51
2022-12-08T04:44:32.456Z,1000.47
2022-12-08T04:45:32.441Z,1000.48
2022-12-08T04:46:32.487Z,1000.49
2022-12-08T04:47:32.343Z,1000.46
2022-12-08T04:48:32.302Z,1000.42
2022-12-08T04:49:32.266Z,1000.47
2022-12-08T04:50:32.226Z,1000.42
2022-12-08T04:51:32.183Z,1000.43
2022-12-08T04:52:32.149Z,1000.42
2022-12-08T04:53:32.144Z,1000.40
2022-12-08T04:54:32.060Z,1000.40
2022-12-08T04:55:32.032Z,1000.38
2022-12-08T04:56:31.983Z,1000.38
2022-12-08T04:57:31.939Z,1000.42
2022-12-08T04:58:31.899Z,1000.35
2022-12-08T04:59:31.867Z,1000.42
2022-12-08T05:00:31.825Z,1000.44
2022-12-08T05:01:31.983Z,1000.43
2022-12-08T05:02:31.807Z,1000.40
2022-12-08T05:03:31.704Z,1000.47
2022-12-08T05:04:31.665Z,1000.49
2022-12-08T05:05:31.625Z,1000.47
2022-12-08T05:06:31.590Z,1000.49
2022-12-08T05:07:31.560Z,1000.53
2022-12-08T05:08:31.620Z,1000.51
2022-12-08T05:09:31.468Z,1000.52
2022-12-08T05:10:31.424Z,1000.52
2022-12-08T05:11:31.386Z,1000.46
2022-12-08T05:12:31.365Z,1000.45
2022-12-08T05:13:31.311Z,1000.43
2022-12-08T05:14:31.271Z,1000.43
2022-12-08T05:15:31.233Z,1000.42
2022-12-08T05:16:31.306Z,1000.43
2022-12-08T05:17:31.148Z,1000.47
2022-12-08T05:18:31.115Z,1000.44
2022-12-08T05:19:31.067Z,1000.46
2022-12-08T05:20:31.030Z,1000.49
2022-12-08T05:21:30.991Z,1000.45
2022-12-08T05:22:30.953Z,1000.47
2022-12-08T05:23:30.921Z,1000.47
2022-12-08T05:24:30.880Z,1000.47
2022-12-08T05:25:30.831Z,1000.49
2022-12-08T05:26:30.795Z,1000.46
2022-12-08T05:27:30.756Z,1000.42
2022-12-08T05:28:45.836Z,1000.45
2022-12-08T05:29:30.682Z,1000.45
2022-12-08T05:30:30.636Z,1000.38
2022-12-08T05:31:30.676Z,1000.39
2022-12-08T05:32:30.556Z,1000.41
2022-12-08T05:33:30.520Z,1000.38
2022-12-08T05:34:30.480Z,1000.43
2022-12-08T05:35:30.445Z,1000.38
2022-12-08T05:36:30.400Z,1000.41
2022-12-08T05:37:30.362Z,1000.32
2022-12-08T05:38:30.324Z,1000.37
2022-12-08T05:39:30.278Z,1000.39
2022-12-08T05:40:30.246Z,1000.36
2022-12-08T05:41:30.202Z,1000.28
2022-12-08T05:42:30.207Z,1000.32
2022-12-08T05:43:30.122Z,1000.31
2022-12-08T05:44:30.081Z,1000.32
2022-12-08T05:45:30.089Z,1000.37
2022-12-08T05:46:30.019Z,1000.35
2022-12-08T05:47:35.721Z,1000.29
2022-12-08T05:48:29.926Z,1000.33
2022-12-08T05:49:29.889Z,1000.30
2022-12-08T05:50:29.850Z,1000.25
2022-12-08T05:51:29.808Z,1000.31
2022-12-08T05:52:29.767Z,1000.31
2022-12-08T05:53:29.740Z,1000.28
2022-12-08T05:54:29.694Z,1000.30
2022-12-08T05:55:29.651Z,1000.27
2022-12-08T05:56:29.621Z,1000.25
2022-12-08T05:57:29.572Z,1000.30
2022-12-08T05:58:29.544Z,1000.26
2022-12-08T05:59:29.491Z,1000.27
2022-12-08T06:00:29.460Z,1000.23
2022-12-08T06:01:29.441Z,1000.21
2022-12-08T06:02:29.545Z,1000.14
2022-12-08T06:03:29.446Z,1000.19
2022-12-08T06:04:29.293Z,1000.17
2022-12-08T06:05:29.253Z,1000.14
2022-12-08T06:06:29.213Z,1000.15
2022-12-08T06:07:29.178Z,1000.18
2022-12-08T06:08:29.223Z,1000.18
2022-12-08T06:09:29.106Z,1000.17
2022-12-08T06:10:29.058Z,1000.11
2022-12-08T06:11:29.020Z,1000.12
2022-12-08T06:12:28.982Z,1000.15
2022-12-08T06:13:28.938Z,1000.14
2022-12-08T06:14:28.896Z,1000.16
2022-12-08T06:15:28.863Z,1000.10
2022-12-08T06:16:28.956Z,1000.14
2022-12-08T06:17:28.784Z,1000.20
2022-12-08T06:18:32.739Z,1000.19
2022-12-08T06:19:28.704Z,1000.14
2022-12-08T06:20:28.658Z,1000.16
2022-12-08T06:21:28.622Z,1000.14
2022-12-08T06:22:28.580Z,1000.14
2022-12-08T06:23:28.538Z,1000.18
2022-12-08T06:24:28.497Z,1000.12
2022-12-08T06:25:28.495Z,1000.13
2022-12-08T06:26:28.424Z,1000.18
2022-12-08T06:27:28.382Z,1000.25
2022-12-08T06:28:28.349Z,1000.18
2022-12-08T06:29:28.297Z,1000.20
2022-12-08T06:30:28.308Z,1000.17
2022-12-08T06:31:28.285Z,1000.18
2022-12-08T06:32:28.238Z,1000.20
2022-12-08T06:33:28.144Z,1000.17
2022-12-08T06:34:28.108Z,1000.16
2022-12-08T06:35:28.066Z,1000.14
2022-12-08T06:36:28.025Z,1000.13
2022-12-08T06:37:27.997Z,1000.13
2022-12-08T06:38:27.945Z,1000.10
2022-12-08T06:39:27.923Z,1000.08
2022-12-08T06:40:27.866Z,1000.14
2022-12-08T06:41:27.825Z,1000.10
2022-12-08T06:42:27.786Z,1000.10
2022-12-08T06:43:27.750Z,1000.11
2022-12-08T06:44:27.708Z,1000.13
2022-12-08T06:45:27.672Z,1000.14
2022-12-08T06:46:27.676Z,1000.11
2022-12-08T06:47:27.589Z,1000.12
2022-12-08T06:48:27.552Z,1000.15
2022-12-08T06:49:27.511Z,1000.13
2022-12-08T06:50:27.472Z,1000.16
2022-12-08T06:51:27.433Z,1000.15
2022-12-08T06:52:27.390Z,1000.15
2022-12-08T06:53:27.358Z,1000.22
2022-12-08T06:54:27.320Z,1000.22
2022-12-08T06:55:58.295Z,1000.18
2022-12-08T06:56:27.237Z,1000.14
2022-12-08T06:57:27.195Z,1000.14
2022-12-08T06:58:27.174Z,1000.22
2022-12-08T06:59:27.114Z,1000.22
2022-12-08T07:00:27.076Z,1000.21
2022-12-08T07:01:27.085Z,1000.21
2022-12-08T07:02:27.077Z,1000.17
2022-12-08T07:03:26.952Z,1000.17
2022-12-08T07:04:26.958Z,1000.17
2022-12-08T07:05:26.879Z,1000.21
2022-12-08T07:06:26.838Z,1000.20
2022-12-08T07:07:26.798Z,1000.22
2022-12-08T07:08:26.841Z,1000.26
2022-12-08T07:09:26.719Z,1000.21
2022-12-08T07:10:26.679Z,1000.25
2022-12-08T07:11:26.636Z,1000.20
2022-12-08T07:12:26.601Z,1000.23
2022-12-08T07:13:26.577Z,1000.22
2022-12-08T07:14:26.532Z,1000.23
2022-12-08T07:15:26.478Z,1000.20
2022-12-08T07:16:26.559Z,1000.22
2022-12-08T07:17:26.399Z,1000.27
2022-12-08T07:18:26.361Z,1000.21
2022-12-08T07:19:26.321Z,1000.27
2022-12-08T07:20:26.279Z,1000.25
2022-12-08T07:21:26.238Z,1000.26
2022-12-08T07:22:26.204Z,1000.31
2022-12-08T07:23:26.163Z,1000.31
2022-12-08T07:24:26.123Z,1000.34
2022-12-08T07:25:26.095Z,1000.36
2022-12-08T07:26:26.044Z,1000.31
2022-12-08T07:27:26.007Z,1000.33
2022-12-08T07:28:25.968Z,1000.35
2022-12-08T07:29:26.492Z,1000.35
2022-12-08T07:30:25.920Z,1000.37
2022-12-08T07:31:25.968Z,1000.34
2022-12-08T07:32:25.808Z,1000.35
2022-12-08T07:33:25.763Z,1000.38
2022-12-08T07:34:25.740Z,1000.38
2022-12-08T07:35:25.691Z,1000.39
2022-12-08T07:36:25.651Z,1000.33
2022-12-08T07:37:25.601Z,1000.32
2022-12-08T07:38:25.565Z,1000.34
2022-12-08T07:39:25.528Z,1000.31
2022-12-08T07:40:25.509Z,1000.33
2022-12-08T07:41:25.450Z,1000.34
2022-12-08T07:42:25.405Z,1000.32
2022-12-08T07:43:25.373Z,1000.38
2022-12-08T07:44:25.330Z,1000.31
2022-12-08T07:45:31.251Z,1000.38
2022-12-08T07:46:25.324Z,1000.37
2022-12-08T07:47:25.216Z,1000.37
2022-12-08T07:48:25.194Z,1000.34
2022-12-08T07:49:25.131Z,1000.32
2022-12-08T07:50:25.133Z,1000.26
2022-12-08T07:51:25.052Z,1000.27
2022-12-08T07:52:25.033Z,1000.26
2022-12-08T07:53:24.973Z,1000.27
2022-12-08T07:54:25.293Z,1000.25
2022-12-08T07:55:24.893Z,1000.26
2022-12-08T07:56:24.850Z,1000.29
2022-12-08T07:57:24.814Z,1000.29
2022-12-08T07:58:24.769Z,1000.28
2022-12-08T07:59:24.739Z,1000.27
2022-12-08T08:00:24.830Z,1000.29
2022-12-08T08:01:24.783Z,1000.28
2022-12-08T08:02:25.930Z,1000.30
2022-12-08T08:03:24.571Z,1000.29
2022-12-08T08:04:24.630Z,1000.26
2022-12-08T08:05:24.496Z,1000.30
2022-12-08T08:06:24.455Z,1000.30
2022-12-08T08:07:24.417Z,1000.34
2022-12-08T08:08:24.424Z,1000.30
2022-12-08T08:09:24.334Z,1000.35
2022-12-08T08:10:24.304Z,1000.36
2022-12-08T08:11:24.255Z,1000.24
2022-12-08T08:12:32.543Z,1000.25
2022-12-08T08:13:24.242Z,1000.25
2022-12-08T08:14:24.128Z,1000.22
2022-12-08T08:15:24.103Z,1000.22
2022-12-08T08:16:24.207Z,1000.22
2022-12-08T08:17:24.207Z,1000.24
2022-12-08T08:18:23.969Z,1000.29
2022-12-08T08:19:23.953Z,1000.25
2022-12-08T08:20:23.904Z,1000.27
2022-12-08T08:21:47.255Z,1000.26
2022-12-08T08:22:23.811Z,1000.24
2022-12-08T08:23:23.771Z,1000.29
2022-12-08T08:24:23.735Z,1000.31
2022-12-08T08:25:23.686Z,1000.32
2022-12-08T08:26:23.652Z,1000.28
2022-12-08T08:27:23.611Z,1000.30
2022-12-08T08:28:23.569Z,1000.32
2022-12-08T08:29:23.527Z,1000.29
2022-12-08T08:30:23.490Z,1000.34
2022-12-08T08:31:23.511Z,1000.35
2022-12-08T08:32:23.410Z,1000.32
2022-12-08T08:33:23.369Z,1000.30
2022-12-08T08:34:23.355Z,1000.30
2022-12-08T08:35:23.289Z,1000.27
2022-12-08T08:36:23.250Z,1000.34
2022-12-08T08:37:23.273Z,1000.33
2022-12-08T08:38:23.176Z,1000.32
2022-12-08T08:39:23.127Z,1000.27
2022-12-08T08:40:23.094Z,1000.26
2022-12-08T08:41:23.051Z,1000.26
2022-12-08T08:42:23.007Z,1000.27
2022-12-08T08:43:22.969Z,1000.22
2022-12-08T08:44:22.932Z,1000.28
2022-12-08T08:45:22.895Z,1000.24
2022-12-08T08:46:22.943Z,1000.25
2022-12-08T08:47:22.880Z,1000.27
2022-12-08T08:48:22.770Z,1000.26
2022-12-08T08:49:22.733Z,1000.29
2022-12-08T08:50:22.704Z,1000.28
2022-12-08T08:51:22.654Z,1000.30
2022-12-08T08:52:22.616Z,1000.31
2022-12-08T08:53:22.572Z,1000.37
2022-12-08T08:54:22.534Z,1000.29
2022-12-08T08:55:22.498Z,1000.33
2022-12-08T08:56:22.449Z,1000.32
2022-12-08T08:57:25.853Z,1000.36
2022-12-08T08:58:22.370Z,1000.35
2022-12-08T08:59:22.331Z,1000.31
2022-12-08T09:00:22.289Z,1000.34
2022-12-08T09:01:22.300Z,1000.29
2022-12-08T09:02:22.213Z,1000.27
2022-12-08T09:03:22.172Z,1000.28
2022-12-08T09:04:22.187Z,1000.28
2022-12-08T09:05:22.090Z,1000.29
2022-12-08T09:06:22.124Z,1000.29
2022-12-08T09:07:22.014Z,1000.26
2022-12-08T09:08:22.048Z,1000.28
2022-12-08T09:09:21.935Z,1000.28
2022-12-08T09:10:21.926Z,1000.27
2022-12-08T09:11:21.866Z,1000.30
2022-12-08T09:12:21.813Z,1000.32
2022-12-08T09:13:21.771Z,1000.33
2022-12-08T09:14:21.732Z,1000.35
2022-12-08T09:15:21.785Z,1000.39
2022-12-08T09:16:21.761Z,1000.35
2022-12-08T09:17:21.656Z,1000.36
2022-12-08T09:18:21.571Z,1000.38
2022-12-08T09:19:21.531Z,1000.37
2022-12-08T09:20:21.492Z,1000.42
2022-12-08T09:21:21.452Z,1000.42
2022-12-08T09:22:21.418Z,1000.38
2022-12-08T09:23:21.377Z,1000.43
2022-12-08T09:24:21.378Z,1000.41
2022-12-08T09:25:21.291Z,1000.42
2022-12-08T09:26:21.246Z,1000.37
2022-12-08T09:27:21.326Z,1000.38
2022-12-08T09:28:21.175Z,1000.35
2022-12-08T09:29:21.130Z,1000.41
2022-12-08T09:30:21.092Z,1000.37
2022-12-08T09:31:21.140Z,1000.35
2022-12-08T09:32:21.007Z,1000.28
2022-12-08T09:33:21.011Z,1000.30
2022-12-08T09:34:20.942Z,1000.30
2022-12-08T09:35:20.890Z,1000.33
2022-12-08T09:36:20.854Z,1000.31
2022-12-08T09:37:20.813Z,1000.34
2022-12-08T09:38:20.773Z,1000.30
2022-12-08T09:39:20.732Z,1000.33
2022-12-08T09:40:20.690Z,1000.34
2022-12-08T09:41:20.653Z,1000.34
2022-12-08T09:42:20.608Z,1000.31
2022-12-08T09:43:20.569Z,1000.38
2022-12-08T09:44:20.529Z,1000.30
2022-12-08T09:45:20.485Z,1000.32
2022-12-08T09:46:20.501Z,1000.30
2022-12-08T09:47:20.480Z,1000.31
2022-12-08T09:48:20.367Z,1000.26
2022-12-08T09:49:20.327Z,1000.28
2022-12-08T09:50:20.294Z,1000.24
2022-12-08T09:51:20.253Z,1000.23
2022-12-08T09:52:20.205Z,1000.25
2022-12-08T09:53:20.171Z,1000.22
2022-12-08T09:54:20.140Z,1000.24
2022-12-08T09:55:20.083Z,1000.25
2022-12-08T09:56:20.063Z,1000.26
2022-12-08T09:57:20.005Z,1000.23
2022-12-08T09:58:19.965Z,1000.19
2022-12-08T09:59:19.927Z,1000.24
2022-12-08T10:00:19.890Z,1000.19
2022-12-08T10:01:19.867Z,1000.19
2022-12-08T10:02:19.870Z,1000.15
2022-12-08T10:03:19.765Z,1000.16
2022-12-08T10:04:19.726Z,1000.17
2022-12-08T10:05:19.762Z,1000.11
2022-12-08T10:06:19.640Z,1000.14
2022-12-08T10:07:19.613Z,1000.13
2022-12-08T10:08:19.583Z,1000.11
2022-12-08T10:09:22.701Z,1000.12
2022-12-08T10:10:19.487Z,1000.10
2022-12-08T10:11:19.454Z,1000.06
2022-12-08T10:12:19.416Z,1000.05
2022-12-08T10:13:19.363Z,1000.05
2022-12-08T10:14:19.325Z,1000.05
2022-12-08T10:15:19.291Z,1000.02
2022-12-08T10:16:23.038Z,1000.00
2022-12-08T10:17:19.214Z,1000.05
2022-12-08T10:18:19.185Z,1000.05
2022-12-08T10:19:19.143Z,1000.03
2022-12-08T10:20:19.167Z,1000.04
2022-12-08T10:21:19.055Z,1000.04
2022-12-08T10:22:19.008Z,1000.07
2022-12-08T10:23:18.970Z,1000.10
2022-12-08T10:24:18.925Z,1000.07
2022-12-08T10:25:18.886Z,1000.04
2022-12-08T10:26:18.926Z,1000.03
2022-12-08T10:27:18.806Z,1000.02
2022-12-08T10:28:18.789Z,999.99
2022-12-08T10:29:18.729Z,999.99
2022-12-08T10:30:18.773Z,999.97
2022-12-08T10:31:18.694Z,999.97
2022-12-08T10:32:18.611Z,999.94
2022-12-08T10:33:18.572Z,999.88
2022-12-08T10:34:18.526Z,999.91
2022-12-08T10:35:18.495Z,999.86
2022-12-08T10:36:18.519Z,999.87
2022-12-08T10:37:18.477Z,999.88
2022-12-08T10:38:18.377Z,999.86
2022-12-08T10:39:18.330Z,999.85
2022-12-08T10:40:18.435Z,999.85
2022-12-08T10:41:18.388Z,999.86
2022-12-08T10:42:18.210Z,999.83
2022-12-08T10:43:18.168Z,999.83
2022-12-08T10:44:18.148Z,999.81
2022-12-08T10:45:18.097Z,999.83
2022-12-08T10:46:18.073Z,999.83
2022-12-08T10:47:18.017Z,999.79
2022-12-08T10:48:17.970Z,999.81
2022-12-08T10:49:17.930Z,999.78
2022-12-08T10:50:17.945Z,999.80
2022-12-08T10:51:17.856Z,999.79
2022-12-08T10:52:17.865Z,999.80
2022-12-08T10:53:17.769Z,999.78
2022-12-08T10:54:21.945Z,999.78
2022-12-08T10:55:17.695Z,999.77
2022-12-08T10:56:17.707Z,999.76
2022-12-08T10:57:17.657Z,999.78
2022-12-08T10:58:17.572Z,999.70
2022-12-08T10:59:17.536Z,999.72
2022-12-08T11:00:17.890Z,999.71
2022-12-08T11:01:17.503Z,999.73
2022-12-08T11:02:17.639Z,999.73
2022-12-08T11:03:17.378Z,999.67
2022-12-08T11:04:17.337Z,999.69
2022-12-08T11:05:17.300Z,999.66
2022-12-08T11:06:17.261Z,999.68
2022-12-08T11:07:17.272Z,999.65
2022-12-08T11:08:17.267Z,999.62
2022-12-08T11:09:17.144Z,999.64
2022-12-08T11:10:17.258Z,999.70
2022-12-08T11:11:17.128Z,999.64
2022-12-08T11:12:17.043Z,999.67
2022-12-08T11:13:16.983Z,999.67
2022-12-08T11:14:16.997Z,999.69
2022-12-08T11:15:16.904Z,999.63
2022-12-08T11:16:17.087Z,999.65
2022-12-08T11:17:16.828Z,999.65
2022-12-08T11:18:16.786Z,999.61
2022-12-08T11:19:16.744Z,999.64
2022-12-08T11:20:16.802Z,999.61
2022-12-08T11:21:16.674Z,999.58
2022-12-08T11:22:16.636Z,999.58
2022-12-08T11:23:16.594Z,999.55
2022-12-08T11:24:16.550Z,999.52
2022-12-08T11:25:16.510Z,999.54
2022-12-08T11:26:16.478Z,999.49
2022-12-08T11:27:16.444Z,999.51
2022-12-08T11:28:16.453Z,999.49
2022-12-08T11:29:16.350Z,999.47
2022-12-08T11:30:16.674Z,999.47
2022-12-08T11:31:16.352Z,999.45
2022-12-08T11:32:16.244Z,999.49
2022-12-08T11:33:16.196Z,999.46
2022-12-08T11:34:16.167Z,999.43
2022-12-08T11:35:16.124Z,999.44
2022-12-08T11:36:16.077Z,999.41
2022-12-08T11:37:16.106Z,999.39
2022-12-08T11:38:22.870Z,999.37
2022-12-08T11:39:15.965Z,999.34
2022-12-08T11:40:15.924Z,999.33
2022-12-08T11:41:16.797Z,999.32
2022-12-08T11:42:15.850Z,999.31
2022-12-08T11:43:15.811Z,999.30
2022-12-08T11:44:15.769Z,999.32
2022-12-08T11:45:15.726Z,999.31
2022-12-08T11:46:15.764Z,999.29
2022-12-08T11:47:15.731Z,999.27
2022-12-08T11:48:15.614Z,999.24
2022-12-08T11:49:15.571Z,999.24
2022-12-08T11:50:18.320Z,999.22
2022-12-08T11:51:15.486Z,999.23
2022-12-08T11:52:15.452Z,999.17
2022-12-08T11:53:15.413Z,999.22
2022-12-08T11:54:15.377Z,999.21
2022-12-08T11:55:15.329Z,999.16
2022-12-08T11:56:15.297Z,999.19
2022-12-08T11:57:15.298Z,999.20
2022-12-08T11:58:15.253Z,999.19
2022-12-08T11:59:15.225Z,999.18
2022-12-08T12:00:15.138Z,999.18
2022-12-08T12:01:15.098Z,999.15
2022-12-08T12:02:15.160Z,999.16
2022-12-08T12:03:15.065Z,999.14
2022-12-08T12:04:14.990Z,999.16
2022-12-08T12:05:17.384Z,999.14
2022-12-08T12:06:53.710Z,999.15
2022-12-08T12:07:14.867Z,999.14
2022-12-08T12:08:14.909Z,999.15